Terminal Aerodrome Forecast
Issued by NWS Wichita, KS

Home | Current Version | Previous Version | Graphics & Text | Print | Product List | Glossary On
Versions: 1 2 3 4 5 6 7 8 9 10 11 12 13 14
617
FTUS43 KICT 252335
TAFICT
TAF
KICT 252335Z 2600/2624 07013KT P6SM VCSH OVC070
     FM260300 08009KT P6SM OVC070=

USA.gov is the U.S. government's official web portal to all federal, state and local government web resources and services.